sensor_id;sensor_type;location;lat;lon;timestamp;P1;durP1;ratioP1;P2;durP2;ratioP2
7203;SDS011;3643;52.460;13.322;2023-10-19T00:00:55;19.93;;;10.70;;
7203;SDS011;3643;52.460;13.322;2023-10-19T00:03:24;18.60;;;10.97;;
7203;SDS011;3643;52.460;13.322;2023-10-19T00:05:51;14.87;;;10.83;;
7203;SDS011;3643;52.460;13.322;2023-10-19T00:08:21;18.60;;;11.67;;
7203;SDS011;3643;52.460;13.322;2023-10-19T00:10:49;17.43;;;11.63;;
7203;SDS011;3643;52.460;13.322;2023-10-19T00:13:35;19.73;;;11.93;;
7203;SDS011;3643;52.460;13.322;2023-10-19T00:16:04;17.10;;;11.53;;
7203;SDS011;3643;52.460;13.322;2023-10-19T00:18:38;15.27;;;10.47;;
7203;SDS011;3643;52.460;13.322;2023-10-19T00:21:09;20.27;;;11.90;;
7203;SDS011;3643;52.460;13.322;2023-10-19T00:23:47;18.40;;;10.53;;
7203;SDS011;3643;52.460;13.322;2023-10-19T00:26:21;20.90;;;11.87;;
7203;SDS011;3643;52.460;13.322;2023-10-19T00:28:51;22.60;;;12.57;;
7203;SDS011;3643;52.460;13.322;2023-10-19T00:31:22;19.37;;;11.67;;
7203;SDS011;3643;52.460;13.322;2023-10-19T00:33:50;21.23;;;11.70;;
7203;SDS011;3643;52.460;13.322;2023-10-19T00:36:19;17.20;;;11.10;;
7203;SDS011;3643;52.460;13.322;2023-10-19T00:38:49;19.60;;;12.37;;
7203;SDS011;3643;52.460;13.322;2023-10-19T00:41:20;20.20;;;11.87;;
7203;SDS011;3643;52.460;13.322;2023-10-19T00:43:50;20.00;;;11.63;;
7203;SDS011;3643;52.460;13.322;2023-10-19T00:46:24;21.70;;;12.17;;
7203;SDS011;3643;52.460;13.322;2023-10-19T00:48:59;19.53;;;11.63;;
7203;SDS011;3643;52.460;13.322;2023-10-19T00:51:33;17.87;;;12.03;;
7203;SDS011;3643;52.460;13.322;2023-10-19T00:54:18;17.07;;;11.60;;
7203;SDS011;3643;52.460;13.322;2023-10-19T00:56:53;19.37;;;11.30;;
7203;SDS011;3643;52.460;13.322;2023-10-19T00:59:24;18.77;;;12.20;;
7203;SDS011;3643;52.460;13.322;2023-10-19T01:01:56;19.70;;;12.10;;
7203;SDS011;3643;52.460;13.322;2023-10-19T01:04:42;19.00;;;12.03;;
7203;SDS011;3643;52.460;13.322;2023-10-19T01:07:12;20.37;;;12.37;;
7203;SDS011;3643;52.460;13.322;2023-10-19T01:09:49;20.00;;;12.13;;
7203;SDS011;3643;52.460;13.322;2023-10-19T01:12:20;18.70;;;11.67;;
7203;SDS011;3643;52.460;13.322;2023-10-19T01:15:00;16.57;;;10.93;;
7203;SDS011;3643;52.460;13.322;2023-10-19T01:17:32;21.03;;;11.97;;
7203;SDS011;3643;52.460;13.322;2023-10-19T01:20:06;17.77;;;11.33;;
7203;SDS011;3643;52.460;13.322;2023-10-19T01:22:51;20.13;;;12.30;;
7203;SDS011;3643;52.460;13.322;2023-10-19T01:25:44;20.63;;;12.10;;
7203;SDS011;3643;52.460;13.322;2023-10-19T01:28:26;21.07;;;11.07;;
7203;SDS011;3643;52.460;13.322;2023-10-19T01:31:09;18.73;;;11.80;;
7203;SDS011;3643;52.460;13.322;2023-10-19T01:33:42;19.23;;;11.97;;
7203;SDS011;3643;52.460;13.322;2023-10-19T01:36:11;18.00;;;11.20;;
7203;SDS011;3643;52.460;13.322;2023-10-19T01:38:42;20.27;;;12.40;;
7203;SDS011;3643;52.460;13.322;2023-10-19T01:41:09;16.87;;;11.47;;
7203;SDS011;3643;52.460;13.322;2023-10-19T01:43:41;19.40;;;11.00;;
7203;SDS011;3643;52.460;13.322;2023-10-19T01:46:09;17.17;;;11.40;;
7203;SDS011;3643;52.460;13.322;2023-10-19T01:48:49;17.30;;;11.53;;
7203;SDS011;3643;52.460;13.322;2023-10-19T01:51:20;21.63;;;12.63;;
7203;SDS011;3643;52.460;13.322;2023-10-19T01:53:51;18.23;;;10.90;;
7203;SDS011;3643;52.460;13.322;2023-10-19T01:56:18;22.67;;;12.33;;
7203;SDS011;3643;52.460;13.322;2023-10-19T01:58:48;17.63;;;11.23;;
7203;SDS011;3643;52.460;13.322;2023-10-19T02:01:18;22.23;;;12.20;;
7203;SDS011;3643;52.460;13.322;2023-10-19T02:03:55;17.57;;;11.07;;
7203;SDS011;3643;52.460;13.322;2023-10-19T02:06:26;17.23;;;11.00;;
7203;SDS011;3643;52.460;13.322;2023-10-19T02:09:02;19.53;;;11.23;;
7203;SDS011;3643;52.460;13.322;2023-10-19T02:11:43;19.80;;;10.90;;
7203;SDS011;3643;52.460;13.322;2023-10-19T02:14:12;17.83;;;12.00;;
7203;SDS011;3643;52.460;13.322;2023-10-19T02:16:41;23.50;;;12.50;;
7203;SDS011;3643;52.460;13.322;2023-10-19T02:19:10;20.17;;;12.60;;
7203;SDS011;3643;52.460;13.322;2023-10-19T02:21:38;18.20;;;11.70;;
7203;SDS011;3643;52.460;13.322;2023-10-19T02:24:07;18.77;;;11.83;;
7203;SDS011;3643;52.460;13.322;2023-10-19T02:26:40;18.30;;;11.63;;
7203;SDS011;3643;52.460;13.322;2023-10-19T02:29:08;18.10;;;11.43;;
7203;SDS011;3643;52.460;13.322;2023-10-19T02:31:37;20.87;;;11.93;;
7203;SDS011;3643;52.460;13.322;2023-10-19T02:34:04;18.47;;;11.37;;
7203;SDS011;3643;52.460;13.322;2023-10-19T02:36:33;18.37;;;12.40;;
7203;SDS011;3643;52.460;13.322;2023-10-19T02:39:01;23.73;;;13.13;;
7203;SDS011;3643;52.460;13.322;2023-10-19T02:41:35;19.40;;;11.97;;
7203;SDS011;3643;52.460;13.322;2023-10-19T02:44:03;19.67;;;12.27;;
7203;SDS011;3643;52.460;13.322;2023-10-19T02:46:36;21.37;;;12.13;;
7203;SDS011;3643;52.460;13.322;2023-10-19T02:49:05;23.87;;;13.57;;
7203;SDS011;3643;52.460;13.322;2023-10-19T02:51:37;20.87;;;12.53;;
7203;SDS011;3643;52.460;13.322;2023-10-19T02:54:05;16.77;;;11.57;;
7203;SDS011;3643;52.460;13.322;2023-10-19T02:56:35;22.43;;;12.73;;
7203;SDS011;3643;52.460;13.322;2023-10-19T02:59:02;20.70;;;12.57;;
7203;SDS011;3643;52.460;13.322;2023-10-19T03:01:31;21.37;;;12.77;;
7203;SDS011;3643;52.460;13.322;2023-10-19T03:04:00;21.70;;;13.00;;
7203;SDS011;3643;52.460;13.322;2023-10-19T03:06:30;19.40;;;12.00;;
7203;SDS011;3643;52.460;13.322;2023-10-19T03:08:59;19.57;;;13.03;;
7203;SDS011;3643;52.460;13.322;2023-10-19T03:11:40;22.43;;;12.90;;
7203;SDS011;3643;52.460;13.322;2023-10-19T03:14:08;20.90;;;12.83;;
7203;SDS011;3643;52.460;13.322;2023-10-19T03:16:37;19.63;;;12.97;;
7203;SDS011;3643;52.460;13.322;2023-10-19T03:19:07;23.27;;;13.43;;
7203;SDS011;3643;52.460;13.322;2023-10-19T03:21:36;23.20;;;13.23;;
7203;SDS011;3643;52.460;13.322;2023-10-19T03:24:08;23.13;;;13.47;;
7203;SDS011;3643;52.460;13.322;2023-10-19T03:26:50;19.23;;;12.47;;
7203;SDS011;3643;52.460;13.322;2023-10-19T03:29:17;23.13;;;13.43;;
7203;SDS011;3643;52.460;13.322;2023-10-19T03:31:49;20.50;;;12.80;;
7203;SDS011;3643;52.460;13.322;2023-10-19T03:34:17;22.27;;;12.30;;
7203;SDS011;3643;52.460;13.322;2023-10-19T03:36:45;19.03;;;12.10;;
7203;SDS011;3643;52.460;13.322;2023-10-19T03:39:14;24.77;;;13.73;;
7203;SDS011;3643;52.460;13.322;2023-10-19T03:41:44;19.60;;;13.17;;
7203;SDS011;3643;52.460;13.322;2023-10-19T03:44:13;21.03;;;13.40;;
7203;SDS011;3643;52.460;13.322;2023-10-19T03:46:45;23.60;;;13.60;;
7203;SDS011;3643;52.460;13.322;2023-10-19T03:49:24;24.97;;;14.20;;
7203;SDS011;3643;52.460;13.322;2023-10-19T03:51:57;21.40;;;13.27;;
7203;SDS011;3643;52.460;13.322;2023-10-19T03:54:46;23.33;;;13.73;;
7203;SDS011;3643;52.460;13.322;2023-10-19T03:57:15;19.57;;;12.77;;
7203;SDS011;3643;52.460;13.322;2023-10-19T03:59:50;24.87;;;14.07;;
7203;SDS011;3643;52.460;13.322;2023-10-19T04:02:22;22.10;;;13.50;;
7203;SDS011;3643;52.460;13.322;2023-10-19T04:04:51;21.80;;;13.57;;
7203;SDS011;3643;52.460;13.322;2023-10-19T04:07:21;24.03;;;13.30;;
7203;SDS011;3643;52.460;13.322;2023-10-19T04:09:52;26.37;;;13.83;;
7203;SDS011;3643;52.460;13.322;2023-10-19T04:12:56;25.20;;;13.77;;
7203;SDS011;3643;52.460;13.322;2023-10-19T04:15:28;25.07;;;14.03;;
7203;SDS011;3643;52.460;13.322;2023-10-19T04:18:00;25.00;;;14.57;;
7203;SDS011;3643;52.460;13.322;2023-10-19T04:20:28;28.30;;;14.87;;
7203;SDS011;3643;52.460;13.322;2023-10-19T04:23:08;21.77;;;14.03;;
7203;SDS011;3643;52.460;13.322;2023-10-19T04:25:43;21.80;;;13.03;;
7203;SDS011;3643;52.460;13.322;2023-10-19T04:28:12;22.83;;;13.57;;
7203;SDS011;3643;52.460;13.322;2023-10-19T04:30:42;23.00;;;14.30;;
7203;SDS011;3643;52.460;13.322;2023-10-19T04:33:10;24.77;;;14.60;;
7203;SDS011;3643;52.460;13.322;2023-10-19T04:35:42;24.97;;;14.60;;
7203;SDS011;3643;52.460;13.322;2023-10-19T04:38:10;25.20;;;14.83;;
7203;SDS011;3643;52.460;13.322;2023-10-19T04:40:38;22.37;;;13.93;;
7203;SDS011;3643;52.460;13.322;2023-10-19T04:43:06;21.70;;;13.73;;
7203;SDS011;3643;52.460;13.322;2023-10-19T04:45:34;23.23;;;14.27;;
7203;SDS011;3643;52.460;13.322;2023-10-19T04:48:08;25.43;;;14.90;;
7203;SDS011;3643;52.460;13.322;2023-10-19T04:50:36;24.47;;;14.00;;
7203;SDS011;3643;52.460;13.322;2023-10-19T04:53:06;23.87;;;14.23;;
7203;SDS011;3643;52.460;13.322;2023-10-19T04:55:33;23.13;;;14.13;;
7203;SDS011;3643;52.460;13.322;2023-10-19T04:58:02;24.13;;;15.27;;
7203;SDS011;3643;52.460;13.322;2023-10-19T05:00:32;23.53;;;14.43;;
7203;SDS011;3643;52.460;13.322;2023-10-19T05:03:00;22.20;;;14.30;;
7203;SDS011;3643;52.460;13.322;2023-10-19T05:05:29;26.13;;;15.33;;
7203;SDS011;3643;52.460;13.322;2023-10-19T05:07:57;24.30;;;13.70;;
7203;SDS011;3643;52.460;13.322;2023-10-19T05:10:25;23.83;;;15.20;;
7203;SDS011;3643;52.460;13.322;2023-10-19T05:12:53;25.97;;;15.40;;
7203;SDS011;3643;52.460;13.322;2023-10-19T05:15:22;25.63;;;15.30;;
7203;SDS011;3643;52.460;13.322;2023-10-19T05:17:50;27.60;;;15.53;;
7203;SDS011;3643;52.460;13.322;2023-10-19T05:20:18;27.40;;;14.83;;
7203;SDS011;3643;52.460;13.322;2023-10-19T05:22:48;26.13;;;15.57;;
7203;SDS011;3643;52.460;13.322;2023-10-19T05:25:16;23.57;;;15.23;;
7203;SDS011;3643;52.460;13.322;2023-10-19T05:27:45;29.10;;;16.47;;
7203;SDS011;3643;52.460;13.322;2023-10-19T05:30:13;26.03;;;16.47;;
7203;SDS011;3643;52.460;13.322;2023-10-19T05:32:42;26.30;;;16.70;;
7203;SDS011;3643;52.460;13.322;2023-10-19T05:35:12;27.03;;;16.33;;
7203;SDS011;3643;52.460;13.322;2023-10-19T05:37:50;29.67;;;16.37;;
7203;SDS011;3643;52.460;13.322;2023-10-19T05:40:18;26.57;;;15.73;;
7203;SDS011;3643;52.460;13.322;2023-10-19T05:42:47;25.90;;;15.93;;
7203;SDS011;3643;52.460;13.322;2023-10-19T05:45:15;28.63;;;15.97;;
7203;SDS011;3643;52.460;13.322;2023-10-19T05:47:43;29.07;;;16.80;;
7203;SDS011;3643;52.460;13.322;2023-10-19T05:50:12;27.73;;;16.80;;
7203;SDS011;3643;52.460;13.322;2023-10-19T05:52:42;27.53;;;16.37;;
7203;SDS011;3643;52.460;13.322;2023-10-19T05:55:12;28.20;;;17.00;;
7203;SDS011;3643;52.460;13.322;2023-10-19T05:57:40;31.90;;;17.97;;
7203;SDS011;3643;52.460;13.322;2023-10-19T06:00:09;25.40;;;16.70;;
7203;SDS011;3643;52.460;13.322;2023-10-19T06:02:43;27.73;;;16.90;;
7203;SDS011;3643;52.460;13.322;2023-10-19T06:05:13;29.03;;;17.60;;
7203;SDS011;3643;52.460;13.322;2023-10-19T06:07:43;26.00;;;16.40;;
7203;SDS011;3643;52.460;13.322;2023-10-19T06:10:14;28.83;;;17.20;;
7203;SDS011;3643;52.460;13.322;2023-10-19T06:12:43;28.83;;;17.67;;
7203;SDS011;3643;52.460;13.322;2023-10-19T06:15:12;30.17;;;17.97;;
7203;SDS011;3643;52.460;13.322;2023-10-19T06:17:42;37.97;;;22.07;;
7203;SDS011;3643;52.460;13.322;2023-10-19T06:20:12;34.47;;;19.27;;
7203;SDS011;3643;52.460;13.322;2023-10-19T06:22:50;37.33;;;20.87;;
7203;SDS011;3643;52.460;13.322;2023-10-19T06:25:21;31.43;;;18.93;;
7203;SDS011;3643;52.460;13.322;2023-10-19T06:27:51;32.67;;;20.47;;
7203;SDS011;3643;52.460;13.322;2023-10-19T06:30:23;34.40;;;20.17;;
7203;SDS011;3643;52.460;13.322;2023-10-19T06:32:52;33.50;;;19.57;;
7203;SDS011;3643;52.460;13.322;2023-10-19T06:35:21;32.30;;;20.40;;
7203;SDS011;3643;52.460;13.322;2023-10-19T06:37:50;35.90;;;19.27;;
7203;SDS011;3643;52.460;13.322;2023-10-19T06:40:23;37.43;;;20.63;;
7203;SDS011;3643;52.460;13.322;2023-10-19T06:42:54;36.60;;;20.70;;
7203;SDS011;3643;52.460;13.322;2023-10-19T06:45:23;33.10;;;20.43;;
7203;SDS011;3643;52.460;13.322;2023-10-19T06:47:52;32.30;;;19.30;;
7203;SDS011;3643;52.460;13.322;2023-10-19T06:50:21;33.43;;;20.17;;
7203;SDS011;3643;52.460;13.322;2023-10-19T06:52:50;35.73;;;20.67;;
7203;SDS011;3643;52.460;13.322;2023-10-19T06:55:22;33.60;;;19.20;;
7203;SDS011;3643;52.460;13.322;2023-10-19T06:57:52;36.23;;;20.83;;
7203;SDS011;3643;52.460;13.322;2023-10-19T07:00:22;31.53;;;19.17;;
7203;SDS011;3643;52.460;13.322;2023-10-19T07:02:54;31.77;;;19.13;;
7203;SDS011;3643;52.460;13.322;2023-10-19T07:05:23;33.87;;;20.37;;
7203;SDS011;3643;52.460;13.322;2023-10-19T07:07:52;36.90;;;19.97;;
7203;SDS011;3643;52.460;13.322;2023-10-19T07:10:24;32.73;;;19.70;;
7203;SDS011;3643;52.460;13.322;2023-10-19T07:12:54;42.73;;;25.63;;
7203;SDS011;3643;52.460;13.322;2023-10-19T07:15:24;40.23;;;21.73;;
7203;SDS011;3643;52.460;13.322;2023-10-19T07:17:53;32.00;;;19.77;;
7203;SDS011;3643;52.460;13.322;2023-10-19T07:20:22;34.90;;;20.90;;
7203;SDS011;3643;52.460;13.322;2023-10-19T07:22:53;32.87;;;19.13;;
7203;SDS011;3643;52.460;13.322;2023-10-19T07:25:24;30.70;;;19.43;;
7203;SDS011;3643;52.460;13.322;2023-10-19T07:27:53;41.07;;;20.73;;
7203;SDS011;3643;52.460;13.322;2023-10-19T07:30:21;29.43;;;18.80;;
7203;SDS011;3643;52.460;13.322;2023-10-19T07:32:53;31.13;;;19.80;;
7203;SDS011;3643;52.460;13.322;2023-10-19T07:35:25;34.70;;;18.77;;
7203;SDS011;3643;52.460;13.322;2023-10-19T07:37:54;33.27;;;19.63;;
7203;SDS011;3643;52.460;13.322;2023-10-19T07:40:25;34.77;;;19.30;;
7203;SDS011;3643;52.460;13.322;2023-10-19T07:42:54;31.90;;;18.87;;
7203;SDS011;3643;52.460;13.322;2023-10-19T07:45:23;29.33;;;19.90;;
7203;SDS011;3643;52.460;13.322;2023-10-19T07:47:52;30.40;;;18.17;;
7203;SDS011;3643;52.460;13.322;2023-10-19T07:50:20;30.57;;;18.47;;
7203;SDS011;3643;52.460;13.322;2023-10-19T07:52:49;29.63;;;17.73;;
7203;SDS011;3643;52.460;13.322;2023-10-19T07:55:20;32.97;;;18.53;;
7203;SDS011;3643;52.460;13.322;2023-10-19T07:57:52;34.23;;;19.80;;
7203;SDS011;3643;52.460;13.322;2023-10-19T08:00:21;28.60;;;16.67;;
7203;SDS011;3643;52.460;13.322;2023-10-19T08:02:51;29.67;;;17.23;;
7203;SDS011;3643;52.460;13.322;2023-10-19T08:05:20;31.80;;;17.93;;
7203;SDS011;3643;52.460;13.322;2023-10-19T08:07:49;31.20;;;18.30;;
7203;SDS011;3643;52.460;13.322;2023-10-19T08:10:18;29.47;;;17.87;;
7203;SDS011;3643;52.460;13.322;2023-10-19T08:12:48;28.63;;;17.57;;
7203;SDS011;3643;52.460;13.322;2023-10-19T08:15:18;29.60;;;17.60;;
7203;SDS011;3643;52.460;13.322;2023-10-19T08:17:47;27.90;;;17.47;;
7203;SDS011;3643;52.460;13.322;2023-10-19T08:20:17;28.13;;;16.43;;
7203;SDS011;3643;52.460;13.322;2023-10-19T08:22:52;27.23;;;17.07;;
7203;SDS011;3643;52.460;13.322;2023-10-19T08:25:24;28.07;;;18.03;;
7203;SDS011;3643;52.460;13.322;2023-10-19T08:28:02;31.50;;;17.23;;
7203;SDS011;3643;52.460;13.322;2023-10-19T08:30:32;30.70;;;17.17;;
7203;SDS011;3643;52.460;13.322;2023-10-19T08:33:01;28.93;;;16.53;;
7203;SDS011;3643;52.460;13.322;2023-10-19T08:35:29;23.77;;;15.93;;
7203;SDS011;3643;52.460;13.322;2023-10-19T08:37:57;26.33;;;16.90;;
7203;SDS011;3643;52.460;13.322;2023-10-19T08:40:26;29.13;;;16.10;;
7203;SDS011;3643;52.460;13.322;2023-10-19T08:42:55;29.13;;;16.87;;
7203;SDS011;3643;52.460;13.322;2023-10-19T08:45:23;29.10;;;16.90;;
7203;SDS011;3643;52.460;13.322;2023-10-19T08:47:54;28.57;;;17.13;;
7203;SDS011;3643;52.460;13.322;2023-10-19T08:50:24;26.23;;;16.47;;
7203;SDS011;3643;52.460;13.322;2023-10-19T08:52:55;28.30;;;16.80;;
7203;SDS011;3643;52.460;13.322;2023-10-19T08:55:24;24.60;;;15.70;;
7203;SDS011;3643;52.460;13.322;2023-10-19T08:58:13;28.77;;;16.63;;
7203;SDS011;3643;52.460;13.322;2023-10-19T09:00:43;27.10;;;16.20;;
7203;SDS011;3643;52.460;13.322;2023-10-19T09:03:16;27.77;;;16.30;;
7203;SDS011;3643;52.460;13.322;2023-10-19T09:05:45;29.03;;;16.60;;
7203;SDS011;3643;52.460;13.322;2023-10-19T09:08:15;28.20;;;16.47;;
7203;SDS011;3643;52.460;13.322;2023-10-19T09:10:45;26.73;;;16.00;;
7203;SDS011;3643;52.460;13.322;2023-10-19T09:13:15;23.70;;;15.77;;
7203;SDS011;3643;52.460;13.322;2023-10-19T09:15:46;25.23;;;15.50;;
7203;SDS011;3643;52.460;13.322;2023-10-19T09:18:18;27.20;;;16.37;;
7203;SDS011;3643;52.460;13.322;2023-10-19T09:20:48;27.13;;;16.47;;
7203;SDS011;3643;52.460;13.322;2023-10-19T09:23:22;30.83;;;15.77;;
7203;SDS011;3643;52.460;13.322;2023-10-19T09:25:52;25.93;;;15.83;;
7203;SDS011;3643;52.460;13.322;2023-10-19T09:28:20;22.67;;;15.07;;
7203;SDS011;3643;52.460;13.322;2023-10-19T09:30:50;26.03;;;16.20;;
7203;SDS011;3643;52.460;13.322;2023-10-19T09:33:22;26.37;;;16.87;;
7203;SDS011;3643;52.460;13.322;2023-10-19T09:35:50;24.60;;;15.70;;
7203;SDS011;3643;52.460;13.322;2023-10-19T09:38:22;22.90;;;15.63;;
7203;SDS011;3643;52.460;13.322;2023-10-19T09:40:52;27.20;;;17.03;;
7203;SDS011;3643;52.460;13.322;2023-10-19T09:43:22;25.87;;;17.03;;
7203;SDS011;3643;52.460;13.322;2023-10-19T09:45:59;26.80;;;15.67;;
7203;SDS011;3643;52.460;13.322;2023-10-19T09:48:30;31.30;;;17.63;;
7203;SDS011;3643;52.460;13.322;2023-10-19T09:51:02;24.03;;;16.40;;
7203;SDS011;3643;52.460;13.322;2023-10-19T09:53:31;28.60;;;17.10;;
7203;SDS011;3643;52.460;13.322;2023-10-19T09:55:59;27.17;;;16.07;;
7203;SDS011;3643;52.460;13.322;2023-10-19T09:58:38;25.80;;;16.13;;
7203;SDS011;3643;52.460;13.322;2023-10-19T10:01:12;26.87;;;16.73;;
7203;SDS011;3643;52.460;13.322;2023-10-19T10:03:43;25.97;;;17.53;;
7203;SDS011;3643;52.460;13.322;2023-10-19T10:21:26;29.67;;;18.03;;
7203;SDS011;3643;52.460;13.322;2023-10-19T10:23:55;31.43;;;17.77;;
7203;SDS011;3643;52.460;13.322;2023-10-19T10:26:26;28.00;;;17.83;;
7203;SDS011;3643;52.460;13.322;2023-10-19T10:29:09;30.73;;;19.03;;
7203;SDS011;3643;52.460;13.322;2023-10-19T10:31:43;35.03;;;20.10;;
7203;SDS011;3643;52.460;13.322;2023-10-19T10:37:12;30.37;;;19.40;;
7203;SDS011;3643;52.460;13.322;2023-10-19T10:39:41;34.20;;;20.37;;
7203;SDS011;3643;52.460;13.322;2023-10-19T10:42:11;35.07;;;20.27;;
7203;SDS011;3643;52.460;13.322;2023-10-19T10:44:41;35.83;;;20.70;;
7203;SDS011;3643;52.460;13.322;2023-10-19T10:47:11;33.03;;;21.90;;
7203;SDS011;3643;52.460;13.322;2023-10-19T10:49:47;33.67;;;21.47;;
7203;SDS011;3643;52.460;13.322;2023-10-19T10:52:27;37.43;;;23.20;;
7203;SDS011;3643;52.460;13.322;2023-10-19T10:54:58;35.00;;;21.07;;
7203;SDS011;3643;52.460;13.322;2023-10-19T10:57:34;35.20;;;22.17;;
7203;SDS011;3643;52.460;13.322;2023-10-19T11:00:04;37.23;;;22.53;;
7203;SDS011;3643;52.460;13.322;2023-10-19T11:02:34;36.33;;;22.57;;
7203;SDS011;3643;52.460;13.322;2023-10-19T11:05:10;39.57;;;23.37;;
7203;SDS011;3643;52.460;13.322;2023-10-19T11:07:49;37.57;;;24.43;;
7203;SDS011;3643;52.460;13.322;2023-10-19T11:10:30;42.70;;;24.67;;
7203;SDS011;3643;52.460;13.322;2023-10-19T11:13:02;39.10;;;23.80;;
7203;SDS011;3643;52.460;13.322;2023-10-19T11:15:32;41.33;;;23.53;;
7203;SDS011;3643;52.460;13.322;2023-10-19T11:18:00;40.73;;;25.60;;
7203;SDS011;3643;52.460;13.322;2023-10-19T11:20:29;45.53;;;25.20;;
7203;SDS011;3643;52.460;13.322;2023-10-19T11:22:58;38.77;;;23.80;;
7203;SDS011;3643;52.460;13.322;2023-10-19T11:25:28;39.03;;;23.60;;
7203;SDS011;3643;52.460;13.322;2023-10-19T11:27:59;40.87;;;24.23;;
7203;SDS011;3643;52.460;13.322;2023-10-19T11:30:31;42.10;;;24.93;;
7203;SDS011;3643;52.460;13.322;2023-10-19T11:32:59;42.00;;;25.20;;
7203;SDS011;3643;52.460;13.322;2023-10-19T11:35:29;41.00;;;23.97;;
7203;SDS011;3643;52.460;13.322;2023-10-19T11:38:00;43.40;;;25.47;;
7203;SDS011;3643;52.460;13.322;2023-10-19T11:40:30;45.37;;;25.43;;
7203;SDS011;3643;52.460;13.322;2023-10-19T11:42:58;45.97;;;26.47;;
7203;SDS011;3643;52.460;13.322;2023-10-19T11:45:27;47.43;;;26.13;;
7203;SDS011;3643;52.460;13.322;2023-10-19T11:47:56;47.47;;;25.70;;
7203;SDS011;3643;52.460;13.322;2023-10-19T11:50:24;45.17;;;26.43;;
7203;SDS011;3643;52.460;13.322;2023-10-19T11:52:52;49.47;;;27.50;;
7203;SDS011;3643;52.460;13.322;2023-10-19T11:55:24;62.43;;;33.53;;
7203;SDS011;3643;52.460;13.322;2023-10-19T11:57:52;50.33;;;29.60;;
7203;SDS011;3643;52.460;13.322;2023-10-19T12:00:20;45.00;;;26.23;;
7203;SDS011;3643;52.460;13.322;2023-10-19T12:02:51;47.00;;;27.03;;
7203;SDS011;3643;52.460;13.322;2023-10-19T12:05:19;46.20;;;26.07;;
7203;SDS011;3643;52.460;13.322;2023-10-19T12:07:48;56.07;;;27.87;;
7203;SDS011;3643;52.460;13.322;2023-10-19T12:10:16;46.00;;;27.53;;
7203;SDS011;3643;52.460;13.322;2023-10-19T12:12:47;50.47;;;28.50;;
7203;SDS011;3643;52.460;13.322;2023-10-19T12:15:27;53.80;;;29.03;;
7203;SDS011;3643;52.460;13.322;2023-10-19T12:17:56;54.27;;;29.37;;
7203;SDS011;3643;52.460;13.322;2023-10-19T12:20:26;51.87;;;29.40;;
7203;SDS011;3643;52.460;13.322;2023-10-19T12:22:54;61.20;;;32.13;;
7203;SDS011;3643;52.460;13.322;2023-10-19T12:25:22;61.47;;;31.30;;
7203;SDS011;3643;52.460;13.322;2023-10-19T12:28:03;51.33;;;28.90;;
7203;SDS011;3643;52.460;13.322;2023-10-19T12:30:32;56.33;;;30.47;;
7203;SDS011;3643;52.460;13.322;2023-10-19T12:33:03;60.07;;;32.47;;
7203;SDS011;3643;52.460;13.322;2023-10-19T12:35:38;66.90;;;32.27;;
7203;SDS011;3643;52.460;13.322;2023-10-19T12:38:12;59.40;;;32.20;;
7203;SDS011;3643;52.460;13.322;2023-10-19T12:40:43;70.93;;;34.03;;
7203;SDS011;3643;52.460;13.322;2023-10-19T12:43:14;55.70;;;29.87;;
7203;SDS011;3643;52.460;13.322;2023-10-19T12:45:45;65.17;;;31.20;;
7203;SDS011;3643;52.460;13.322;2023-10-19T12:48:20;57.17;;;30.03;;
7203;SDS011;3643;52.460;13.322;2023-10-19T12:50:48;59.20;;;31.73;;
7203;SDS011;3643;52.460;13.322;2023-10-19T12:53:16;61.67;;;30.67;;
7203;SDS011;3643;52.460;13.322;2023-10-19T12:55:44;60.13;;;30.17;;
7203;SDS011;3643;52.460;13.322;2023-10-19T12:58:14;59.67;;;31.53;;
7203;SDS011;3643;52.460;13.322;2023-10-19T13:00:46;61.60;;;31.73;;
7203;SDS011;3643;52.460;13.322;2023-10-19T13:03:15;56.67;;;30.03;;
7203;SDS011;3643;52.460;13.322;2023-10-19T13:05:43;68.07;;;31.87;;
7203;SDS011;3643;52.460;13.322;2023-10-19T13:08:12;73.17;;;33.60;;
7203;SDS011;3643;52.460;13.322;2023-10-19T13:10:42;61.60;;;32.37;;
7203;SDS011;3643;52.460;13.322;2023-10-19T13:13:11;62.13;;;32.03;;
7203;SDS011;3643;52.460;13.322;2023-10-19T13:15:43;59.93;;;32.47;;
7203;SDS011;3643;52.460;13.322;2023-10-19T13:18:14;65.17;;;33.23;;
7203;SDS011;3643;52.460;13.322;2023-10-19T13:20:46;70.03;;;33.30;;
7203;SDS011;3643;52.460;13.322;2023-10-19T13:23:15;69.87;;;35.23;;
7203;SDS011;3643;52.460;13.322;2023-10-19T13:25:45;69.60;;;34.50;;
7203;SDS011;3643;52.460;13.322;2023-10-19T13:28:18;57.73;;;31.50;;
7203;SDS011;3643;52.460;13.322;2023-10-19T13:30:47;66.37;;;35.57;;
7203;SDS011;3643;52.460;13.322;2023-10-19T13:33:17;72.70;;;37.03;;
7203;SDS011;3643;52.460;13.322;2023-10-19T13:35:47;72.27;;;35.93;;
7203;SDS011;3643;52.460;13.322;2023-10-19T13:38:16;72.77;;;38.37;;
7203;SDS011;3643;52.460;13.322;2023-10-19T13:40:47;69.57;;;37.07;;
7203;SDS011;3643;52.460;13.322;2023-10-19T13:43:16;75.03;;;37.27;;
7203;SDS011;3643;52.460;13.322;2023-10-19T13:45:46;74.87;;;37.50;;
7203;SDS011;3643;52.460;13.322;2023-10-19T13:48:15;72.17;;;37.53;;
7203;SDS011;3643;52.460;13.322;2023-10-19T13:50:45;69.07;;;36.53;;
7203;SDS011;3643;52.460;13.322;2023-10-19T13:53:15;69.10;;;36.73;;
7203;SDS011;3643;52.460;13.322;2023-10-19T13:55:44;77.80;;;38.17;;
7203;SDS011;3643;52.460;13.322;2023-10-19T13:58:12;87.87;;;37.70;;
7203;SDS011;3643;52.460;13.322;2023-10-19T14:00:42;77.17;;;39.13;;
7203;SDS011;3643;52.460;13.322;2023-10-19T14:03:11;86.13;;;39.40;;
7203;SDS011;3643;52.460;13.322;2023-10-19T14:05:41;90.97;;;40.17;;
7203;SDS011;3643;52.460;13.322;2023-10-19T14:08:14;70.77;;;35.60;;
7203;SDS011;3643;52.460;13.322;2023-10-19T14:10:43;77.63;;;38.10;;
7203;SDS011;3643;52.460;13.322;2023-10-19T14:13:12;74.83;;;39.23;;
7203;SDS011;3643;52.460;13.322;2023-10-19T14:15:41;85.17;;;39.77;;
7203;SDS011;3643;52.460;13.322;2023-10-19T14:18:11;79.47;;;39.43;;
7203;SDS011;3643;52.460;13.322;2023-10-19T14:20:39;89.23;;;42.30;;
7203;SDS011;3643;52.460;13.322;2023-10-19T14:23:07;83.07;;;39.13;;
7203;SDS011;3643;52.460;13.322;2023-10-19T14:25:37;80.07;;;40.30;;
7203;SDS011;3643;52.460;13.322;2023-10-19T14:28:06;79.90;;;39.33;;
7203;SDS011;3643;52.460;13.322;2023-10-19T14:30:36;76.13;;;38.10;;
7203;SDS011;3643;52.460;13.322;2023-10-19T14:33:05;90.87;;;41.33;;
7203;SDS011;3643;52.460;13.322;2023-10-19T14:35:37;77.37;;;39.07;;
7203;SDS011;3643;52.460;13.322;2023-10-19T14:38:08;82.20;;;39.83;;
7203;SDS011;3643;52.460;13.322;2023-10-19T14:40:40;84.67;;;40.07;;
7203;SDS011;3643;52.460;13.322;2023-10-19T14:43:11;91.23;;;41.53;;
7203;SDS011;3643;52.460;13.322;2023-10-19T14:45:40;91.17;;;42.77;;
7203;SDS011;3643;52.460;13.322;2023-10-19T14:48:10;87.57;;;43.13;;
7203;SDS011;3643;52.460;13.322;2023-10-19T14:50:41;94.37;;;44.13;;
7203;SDS011;3643;52.460;13.322;2023-10-19T14:53:10;101.37;;;43.50;;
7203;SDS011;3643;52.460;13.322;2023-10-19T14:55:38;102.40;;;43.73;;
7203;SDS011;3643;52.460;13.322;2023-10-19T14:58:06;85.07;;;41.53;;
7203;SDS011;3643;52.460;13.322;2023-10-19T15:00:35;92.00;;;42.47;;
7203;SDS011;3643;52.460;13.322;2023-10-19T15:03:08;103.13;;;47.80;;
7203;SDS011;3643;52.460;13.322;2023-10-19T15:05:38;99.47;;;45.23;;
7203;SDS011;3643;52.460;13.322;2023-10-19T15:08:08;119.37;;;46.07;;
7203;SDS011;3643;52.460;13.322;2023-10-19T15:10:39;95.50;;;45.73;;
7203;SDS011;3643;52.460;13.322;2023-10-19T15:13:08;83.40;;;39.90;;